Time;durP1;ratioP1;P1;durP2;ratioP2;P2;SDS_P1;SDS_P2;PMS_P1;PMS_P2;Temp;Humidity;BMP_temperature;BMP_pressure;BME280_temperature;BME280_humidity;BME280_pressure;Samples;Min_cycle;Max_cycle;Signal;HPM_P1;HPM_P2
2022/04/29 00:02:08;;;;;;;7.73;6.00;;;;;;;;;;5018097;28;20237;-64
2022/04/29 00:04:34;;;;;;;9.80;6.50;;;;;;;;;;5035942;28;20225;-64
2022/04/29 00:07:00;;;;;;;9.03;6.10;;;;;;;;;;5017780;28;20252;-64
2022/04/29 00:09:26;;;;;;;11.83;7.10;;;;;;;;;;5035888;28;20599;-64
2022/04/29 00:11:53;;;;;;;9.37;6.87;;;;;;;;;;5035594;28;20176;-64
2022/04/29 00:14:19;;;;;;;9.13;5.80;;;;;;;;;;5035959;28;20167;-64
2022/04/29 00:16:45;;;;;;;11.57;6.73;;;;;;;;;;5035518;28;20215;-64
2022/04/29 00:19:11;;;;;;;11.10;6.47;;;;;;;;;;5035483;28;20179;-64
2022/04/29 00:21:36;;;;;;;8.67;6.20;;;;;;;;;;5035747;28;20184;-64
2022/04/29 00:24:02;;;;;;;8.83;6.60;;;;;;;;;;5033769;22;20349;-65
2022/04/29 00:26:28;;;;;;;8.87;7.30;;;;;;;;;;5017675;28;20195;-66
2022/04/29 00:28:54;;;;;;;8.73;6.87;;;;;;;;;;5017673;28;20593;-65
2022/04/29 00:31:20;;;;;;;8.90;7.57;;;;;;;;;;5016474;28;20550;-66
2022/04/29 00:33:46;;;;;;;10.90;7.30;;;;;;;;;;5017961;28;20211;-66
2022/04/29 00:36:12;;;;;;;9.77;7.47;;;;;;;;;;5035661;28;20183;-66
2022/04/29 00:38:38;;;;;;;11.23;7.43;;;;;;;;;;5035402;28;20179;-67
2022/04/29 00:41:04;;;;;;;10.70;8.13;;;;;;;;;;5017428;28;20265;-66
2022/04/29 00:43:31;;;;;;;10.27;8.20;;;;;;;;;;5035373;28;20298;-66
2022/04/29 00:45:56;;;;;;;14.20;7.63;;;;;;;;;;5017488;28;20265;-67
2022/04/29 00:48:22;;;;;;;14.30;8.00;;;;;;;;;;5035178;28;20179;-66
2022/04/29 00:50:48;;;;;;;17.03;8.63;;;;;;;;;;5035222;28;20210;-66
2022/04/29 00:53:16;;;;;;;11.20;7.93;;;;;;;;;;5035155;28;20190;-66
2022/04/29 00:55:43;;;;;;;12.37;8.20;;;;;;;;;;5035146;28;20183;-66
2022/04/29 00:58:18;;;;;;;11.37;8.20;;;;;;;;;;5035435;28;20179;-66
2022/04/29 01:00:44;;;;;;;9.87;7.70;;;;;;;;;;5038126;28;20202;-66
2022/04/29 01:03:11;;;;;;;15.03;8.60;;;;;;;;;;5037684;28;20237;-65
2022/04/29 01:05:39;;;;;;;11.00;8.50;;;;;;;;;;5021380;28;20206;-66
2022/04/29 01:08:05;;;;;;;11.90;8.27;;;;;;;;;;5020698;28;20648;-67
2022/04/29 01:10:31;;;;;;;11.37;7.97;;;;;;;;;;5037932;28;20197;-66
2022/04/29 01:12:58;;;;;;;10.87;8.17;;;;;;;;;;5038370;28;20175;-66
2022/04/29 01:15:24;;;;;;;14.93;8.07;;;;;;;;;;5036538;28;20203;-66
2022/04/29 01:17:53;;;;;;;12.03;7.87;;;;;;;;;;5035946;28;20183;-66
2022/04/29 01:20:21;;;;;;;12.53;7.60;;;;;;;;;;5035789;28;20179;-66
2022/04/29 01:22:47;;;;;;;11.77;7.63;;;;;;;;;;5017517;28;20272;-67
2022/04/29 01:25:13;;;;;;;10.53;7.97;;;;;;;;;;5034733;28;20277;-66
2022/04/29 01:27:39;;;;;;;13.80;8.27;;;;;;;;;;5034554;28;20183;-66
2022/04/29 01:30:07;;;;;;;13.37;8.23;;;;;;;;;;5034846;28;20212;-66
2022/04/29 01:32:33;;;;;;;9.87;7.57;;;;;;;;;;5016543;28;20613;-67
2022/04/29 01:34:59;;;;;;;10.87;8.23;;;;;;;;;;5034135;28;20231;-66
2022/04/29 01:37:25;;;;;;;12.23;8.83;;;;;;;;;;5016300;28;20187;-66
2022/04/29 01:39:51;;;;;;;13.83;8.70;;;;;;;;;;5016309;28;20627;-66
2022/04/29 01:42:17;;;;;;;9.33;7.70;;;;;;;;;;5033956;28;20542;-67
2022/04/29 01:44:45;;;;;;;12.73;7.87;;;;;;;;;;5034004;28;20202;-67
2022/04/29 01:47:11;;;;;;;11.57;7.80;;;;;;;;;;5034173;28;20237;-66
2022/04/29 01:49:37;;;;;;;12.97;8.87;;;;;;;;;;5034383;28;20176;-66
2022/04/29 01:52:03;;;;;;;11.63;7.97;;;;;;;;;;5034013;28;20182;-67
2022/04/29 01:54:29;;;;;;;11.50;7.83;;;;;;;;;;5015998;28;20202;-66
2022/04/29 01:56:55;;;;;;;10.37;7.73;;;;;;;;;;5033937;28;20541;-66
2022/04/29 01:59:21;;;;;;;11.97;7.97;;;;;;;;;;5015965;28;20300;-66
2022/04/29 02:01:47;;;;;;;13.80;8.10;;;;;;;;;;5033890;28;20176;-66
2022/04/29 02:04:16;;;;;;;11.53;7.93;;;;;;;;;;5016463;28;20273;-66
2022/04/29 02:06:42;;;;;;;13.73;8.30;;;;;;;;;;5033516;28;20293;-66
2022/04/29 02:09:09;;;;;;;11.00;7.60;;;;;;;;;;5033554;28;20549;-66
2022/04/29 02:11:35;;;;;;;10.23;7.53;;;;;;;;;;5015743;28;20655;-66
2022/04/29 02:14:02;;;;;;;9.83;7.90;;;;;;;;;;5015722;28;20199;-66
2022/04/29 02:16:28;;;;;;;11.30;8.07;;;;;;;;;;5016003;28;20589;-66
2022/04/29 02:18:54;;;;;;;9.03;7.70;;;;;;;;;;5015728;28;20179;-66
2022/04/29 02:21:20;;;;;;;10.40;8.03;;;;;;;;;;5033287;28;20213;-66
2022/04/29 02:23:46;;;;;;;11.93;7.63;;;;;;;;;;5033190;28;20242;-66
2022/04/29 02:26:12;;;;;;;8.90;6.90;;;;;;;;;;5033447;28;20564;-66
2022/04/29 02:28:38;;;;;;;10.60;7.83;;;;;;;;;;5015723;28;20190;-66
2022/04/29 02:31:04;;;;;;;14.47;7.90;;;;;;;;;;5033302;28;20171;-66
2022/04/29 02:33:32;;;;;;;10.97;6.90;;;;;;;;;;5033183;28;20263;-65
2022/04/29 02:35:59;;;;;;;11.20;7.07;;;;;;;;;;5033536;28;20176;-65
2022/04/29 02:38:25;;;;;;;9.57;6.93;;;;;;;;;;5015818;28;20585;-66
2022/04/29 02:40:51;;;;;;;7.10;5.83;;;;;;;;;;5033409;28;20266;-66
2022/04/29 02:43:19;;;;;;;8.30;7.23;;;;;;;;;;5033085;28;20179;-66
2022/04/29 02:45:46;;;;;;;10.00;8.10;;;;;;;;;;5015403;28;20233;-66
2022/04/29 02:48:12;;;;;;;10.00;7.40;;;;;;;;;;5033056;28;20278;-65
2022/04/29 02:50:38;;;;;;;9.37;6.53;;;;;;;;;;5015658;28;20679;-66
2022/04/29 02:53:04;;;;;;;15.97;7.27;;;;;;;;;;5033032;28;20178;-65
2022/04/29 02:55:31;;;;;;;7.63;6.43;;;;;;;;;;5036919;28;20737;-66
2022/04/29 02:57:56;;;;;;;8.50;6.93;;;;;;;;;;5019290;28;20178;-66
2022/04/29 03:00:22;;;;;;;12.53;7.53;;;;;;;;;;5037031;28;20697;-66
2022/04/29 03:02:48;;;;;;;9.10;6.83;;;;;;;;;;5036974;28;20179;-66
2022/04/29 03:05:14;;;;;;;10.93;6.50;;;;;;;;;;5019108;28;20250;-66
2022/04/29 03:07:40;;;;;;;8.73;6.60;;;;;;;;;;5036912;28;20646;-66
2022/04/29 03:10:06;;;;;;;11.23;6.60;;;;;;;;;;5037166;28;20175;-66
2022/04/29 03:12:32;;;;;;;9.13;6.03;;;;;;;;;;5036721;28;20210;-66
2022/04/29 03:15:15;;;;;;;10.70;6.17;;;;;;;;;;5036750;28;20788;-66
2022/04/29 03:20:26;;;;;;;11.13;6.30;;;;;;;;;;5036966;28;20175;-66
2022/04/29 03:22:52;;;;;;;10.67;6.37;;;;;;;;;;5036626;28;20628;-65
2022/04/29 03:25:18;;;;;;;12.37;6.80;;;;;;;;;;5036273;28;20234;-66
2022/04/29 03:27:44;;;;;;;8.40;6.60;;;;;;;;;;5018707;28;20554;-66
2022/04/29 03:30:10;;;;;;;7.73;6.53;;;;;;;;;;5036459;28;20180;-66
2022/04/29 03:32:36;;;;;;;11.23;6.73;;;;;;;;;;5018568;28;20182;-66
2022/04/29 03:35:02;;;;;;;7.20;5.40;;;;;;;;;;5018506;28;20211;-66
2022/04/29 03:37:28;;;;;;;10.30;6.33;;;;;;;;;;5036548;28;20179;-66
2022/04/29 03:39:54;;;;;;;9.10;6.77;;;;;;;;;;5036355;28;20171;-66
2022/04/29 03:42:21;;;;;;;11.20;6.80;;;;;;;;;;5019321;28;20190;-66
2022/04/29 03:44:47;;;;;;;8.87;6.17;;;;;;;;;;5036100;28;20199;-66
2022/04/29 03:47:13;;;;;;;8.93;5.73;;;;;;;;;;5018373;28;20187;-66
2022/04/29 03:49:39;;;;;;;7.67;6.17;;;;;;;;;;5036323;28;20225;-65
2022/04/29 03:52:06;;;;;;;9.87;5.57;;;;;;;;;;5036499;28;20258;-66
2022/04/29 03:54:32;;;;;;;8.90;6.10;;;;;;;;;;5036062;28;20226;-66
2022/04/29 03:56:58;;;;;;;9.13;6.00;;;;;;;;;;5036252;28;20179;-66
2022/04/29 03:59:24;;;;;;;8.87;5.77;;;;;;;;;;5035928;28;20179;-66
2022/04/29 04:01:51;;;;;;;11.20;5.83;;;;;;;;;;5035883;28;20701;-66
2022/04/29 04:04:17;;;;;;;8.20;5.87;;;;;;;;;;5017760;28;20199;-66
2022/04/29 04:06:49;;;;;;;10.27;5.67;;;;;;;;;;5036226;28;20207;-66
2022/04/29 04:09:15;;;;;;;13.00;6.83;;;;;;;;;;5036047;28;20178;-65
2022/04/29 04:11:41;;;;;;;8.63;5.40;;;;;;;;;;5036250;28;20524;-66
2022/04/29 04:14:08;;;;;;;7.63;5.90;;;;;;;;;;5035898;28;20195;-66
2022/04/29 04:16:35;;;;;;;10.80;5.77;;;;;;;;;;5017861;28;20267;-66
2022/04/29 04:19:01;;;;;;;10.07;6.20;;;;;;;;;;5017906;28;20217;-66
2022/04/29 04:21:27;;;;;;;12.17;6.53;;;;;;;;;;5018165;28;20610;-66
2022/04/29 04:23:53;;;;;;;7.33;5.20;;;;;;;;;;5035321;28;20214;-66
2022/04/29 04:26:19;;;;;;;8.13;5.90;;;;;;;;;;5017856;28;20218;-66
2022/04/29 04:28:45;;;;;;;10.47;6.13;;;;;;;;;;5035732;28;20179;-66
2022/04/29 04:31:11;;;;;;;13.27;5.83;;;;;;;;;;5017773;28;20533;-66
2022/04/29 04:33:37;;;;;;;8.43;5.80;;;;;;;;;;5035339;28;20282;-66
2022/04/29 04:36:04;;;;;;;9.87;5.97;;;;;;;;;;5017708;28;20183;-66
2022/04/29 04:38:30;;;;;;;10.63;5.87;;;;;;;;;;5035433;28;20712;-66
2022/04/29 04:40:58;;;;;;;10.23;5.87;;;;;;;;;;5017428;28;20317;-65
2022/04/29 04:43:24;;;;;;;7.83;5.53;;;;;;;;;;5035206;28;20552;-66
2022/04/29 04:45:51;;;;;;;11.37;5.83;;;;;;;;;;5035125;28;20580;-66
2022/04/29 04:48:17;;;;;;;8.90;5.90;;;;;;;;;;5035089;28;20175;-66
2022/04/29 04:50:43;;;;;;;12.37;5.67;;;;;;;;;;5017394;28;20205;-66
2022/04/29 04:53:09;;;;;;;8.07;5.73;;;;;;;;;;5017371;28;20175;-66
2022/04/29 04:55:36;;;;;;;9.17;6.10;;;;;;;;;;5034964;28;20709;-66
2022/04/29 04:58:02;;;;;;;8.63;5.97;;;;;;;;;;5035188;28;20298;-66
2022/04/29 05:00:28;;;;;;;11.27;6.27;;;;;;;;;;5017161;28;20214;-66
2022/04/29 05:02:54;;;;;;;14.73;6.33;;;;;;;;;;5017177;28;20651;-66
2022/04/29 05:05:20;;;;;;;13.43;6.13;;;;;;;;;;5016935;28;20249;-66
2022/04/29 05:07:46;;;;;;;13.50;6.67;;;;;;;;;;5034724;28;20714;-66
2022/04/29 05:10:13;;;;;;;11.33;6.40;;;;;;;;;;5034789;28;20172;-66
2022/04/29 05:12:40;;;;;;;12.40;7.00;;;;;;;;;;5034680;28;20175;-66
2022/04/29 05:15:07;;;;;;;12.87;7.03;;;;;;;;;;5016880;28;20552;-66
2022/04/29 05:17:33;;;;;;;10.77;7.00;;;;;;;;;;5034004;28;20183;-66
2022/04/29 05:19:59;;;;;;;11.77;6.83;;;;;;;;;;5034591;28;20257;-66
2022/04/29 05:22:25;;;;;;;10.07;6.60;;;;;;;;;;5034330;28;20183;-66
2022/04/29 05:24:50;;;;;;;11.40;6.83;;;;;;;;;;5016277;28;20219;-67
2022/04/29 05:27:16;;;;;;;11.33;6.47;;;;;;;;;;5034251;28;20175;-66
2022/04/29 05:29:42;;;;;;;12.73;6.17;;;;;;;;;;5034302;28;20183;-67
2022/04/29 05:32:09;;;;;;;12.53;7.10;;;;;;;;;;5034258;28;20281;-66
2022/04/29 05:34:35;;;;;;;9.13;6.53;;;;;;;;;;5034120;28;20265;-66
2022/04/29 05:37:01;;;;;;;13.03;7.93;;;;;;;;;;5034109;28;20178;-66
2022/04/29 05:42:15;;;;;;;17.07;7.47;;;;;;;;;;5034734;28;20182;-66
2022/04/29 05:44:41;;;;;;;14.97;7.10;;;;;;;;;;5033829;28;20191;-66
2022/04/29 05:47:08;;;;;;;13.97;7.53;;;;;;;;;;5033865;28;20233;-67
2022/04/29 05:49:34;;;;;;;13.23;7.33;;;;;;;;;;5033758;28;20181;-66
2022/04/29 05:52:01;;;;;;;11.90;6.50;;;;;;;;;;5015963;28;20270;-67
2022/04/29 05:54:27;;;;;;;11.47;7.07;;;;;;;;;;5033910;28;20195;-67
2022/04/29 05:56:53;;;;;;;10.87;6.17;;;;;;;;;;5033948;28;20198;-67
2022/04/29 05:59:19;;;;;;;9.07;5.97;;;;;;;;;;5015768;28;20187;-67
2022/04/29 06:01:45;;;;;;;14.27;6.80;;;;;;;;;;5033487;28;20237;-66
2022/04/29 06:04:12;;;;;;;14.73;7.47;;;;;;;;;;5033394;28;20229;-66
2022/04/29 06:06:38;;;;;;;13.07;7.43;;;;;;;;;;5015729;28;20210;-67
2022/04/29 06:09:04;;;;;;;11.23;7.33;;;;;;;;;;5033594;28;20179;-67
2022/04/29 06:11:30;;;;;;;9.80;6.77;;;;;;;;;;5015789;28;20197;-66
2022/04/29 06:13:55;;;;;;;9.43;6.47;;;;;;;;;;5034013;28;20674;-67
2022/04/29 06:16:21;;;;;;;12.53;7.03;;;;;;;;;;5033321;28;20681;-67
2022/04/29 06:18:47;;;;;;;15.40;7.43;;;;;;;;;;5034069;28;20645;-67
2022/04/29 06:21:16;;;;;;;12.20;7.17;;;;;;;;;;5016252;28;20610;-67
2022/04/29 06:23:42;;;;;;;15.00;7.43;;;;;;;;;;5015515;28;20587;-67
2022/04/29 06:26:08;;;;;;;13.87;7.33;;;;;;;;;;5015822;28;20195;-68
2022/04/29 06:28:35;;;;;;;13.63;7.83;;;;;;;;;;5033618;28;20182;-67
2022/04/29 06:31:01;;;;;;;13.00;7.73;;;;;;;;;;5015685;28;20185;-67
2022/04/29 06:33:30;;;;;;;12.13;7.50;;;;;;;;;;5033353;28;20179;-67
2022/04/29 06:35:56;;;;;;;15.53;7.60;;;;;;;;;;5033306;28;20662;-66
2022/04/29 06:38:21;;;;;;;14.27;7.53;;;;;;;;;;5033482;28;20182;-66
2022/04/29 06:40:47;;;;;;;14.23;7.80;;;;;;;;;;5043511;23;20294;-65
2022/04/29 06:43:13;;;;;;;12.63;6.63;;;;;;;;;;5031848;28;20208;-67
2022/04/29 06:45:40;;;;;;;12.37;7.60;;;;;;;;;;5031640;28;20284;-69
2022/04/29 06:48:06;;;;;;;20.50;8.57;;;;;;;;;;5032963;28;20268;-67
2022/04/29 06:50:32;;;;;;;12.77;8.30;;;;;;;;;;5033137;28;20195;-67
2022/04/29 06:52:58;;;;;;;14.53;8.23;;;;;;;;;;5033239;28;20183;-67
2022/04/29 06:55:24;;;;;;;13.50;7.90;;;;;;;;;;5031725;28;20266;-68
2022/04/29 06:57:50;;;;;;;13.47;7.03;;;;;;;;;;5033091;28;20237;-68
2022/04/29 07:00:19;;;;;;;11.33;6.83;;;;;;;;;;5031507;28;20203;-66
2022/04/29 07:02:45;;;;;;;14.30;7.90;;;;;;;;;;5033052;28;20184;-67
2022/04/29 07:05:11;;;;;;;18.83;8.27;;;;;;;;;;5031609;28;20210;-66
2022/04/29 07:07:37;;;;;;;12.27;7.97;;;;;;;;;;5031794;28;20270;-66
2022/04/29 07:10:03;;;;;;;12.70;7.57;;;;;;;;;;5032844;28;20182;-67
2022/04/29 07:12:33;;;;;;;13.30;8.33;;;;;;;;;;5032912;28;20179;-66
2022/04/29 07:14:59;;;;;;;16.10;7.93;;;;;;;;;;5031446;28;20538;-67
2022/04/29 07:17:25;;;;;;;19.50;9.10;;;;;;;;;;5031559;28;20190;-68
2022/04/29 07:19:52;;;;;;;12.67;7.90;;;;;;;;;;5032870;28;20671;-67
2022/04/29 07:22:18;;;;;;;13.47;8.40;;;;;;;;;;5032864;28;20202;-67
2022/04/29 07:24:44;;;;;;;12.27;8.50;;;;;;;;;;5032842;28;20190;-65
2022/04/29 07:27:10;;;;;;;16.40;8.90;;;;;;;;;;5033094;28;20175;-66
2022/04/29 07:29:36;;;;;;;11.97;7.57;;;;;;;;;;5032987;28;20183;-66
2022/04/29 07:32:02;;;;;;;11.30;7.77;;;;;;;;;;5032774;28;20191;-66
2022/04/29 07:42:42;;;;;;;11.93;7.80;;;;;;;;;;5056770;28;20227;-66
2022/04/29 07:45:08;;;;;;;11.77;7.40;;;;;;;;;;5056439;28;20303;-65
2022/04/29 07:47:36;;;;;;;11.83;7.93;;;;;;;;;;5056166;28;20185;-65
2022/04/29 07:50:02;;;;;;;11.90;8.07;;;;;;;;;;5056027;28;20175;-67
2022/04/29 07:52:28;;;;;;;12.93;8.33;;;;;;;;;;5056040;28;20574;-67
2022/04/29 07:54:54;;;;;;;13.57;7.60;;;;;;;;;;5055871;28;20205;-65
2022/04/29 07:57:20;;;;;;;13.70;8.40;;;;;;;;;;5056052;28;20281;-65
2022/04/29 07:59:46;;;;;;;13.13;7.30;;;;;;;;;;5056468;28;20206;-66
2022/04/29 08:02:12;;;;;;;12.37;7.70;;;;;;;;;;5056450;28;20562;-66
2022/04/29 08:04:38;;;;;;;12.63;7.87;;;;;;;;;;5056199;28;20639;-66
2022/04/29 08:07:04;;;;;;;11.30;7.67;;;;;;;;;;5056086;28;20190;-66
2022/04/29 08:09:30;;;;;;;14.50;7.23;;;;;;;;;;5056022;28;20617;-66
2022/04/29 08:11:56;;;;;;;10.13;7.23;;;;;;;;;;5037860;28;20289;-66
2022/04/29 08:14:22;;;;;;;11.70;7.43;;;;;;;;;;5038108;28;20182;-66
2022/04/29 08:16:49;;;;;;;11.60;6.63;;;;;;;;;;5037897;28;20185;-66
2022/04/29 08:19:15;;;;;;;10.97;7.70;;;;;;;;;;5037917;28;20217;-66
2022/04/29 08:21:42;;;;;;;9.40;7.07;;;;;;;;;;5055934;28;20194;-65
2022/04/29 08:24:08;;;;;;;10.93;7.43;;;;;;;;;;5037991;28;20667;-66
2022/04/29 08:26:33;;;;;;;10.27;7.50;;;;;;;;;;5037545;28;20238;-66
2022/04/29 08:28:59;;;;;;;14.60;7.23;;;;;;;;;;5055548;28;20260;-66
2022/04/29 08:31:26;;;;;;;8.93;7.23;;;;;;;;;;5055342;28;20551;-66
2022/04/29 08:33:52;;;;;;;11.37;7.03;;;;;;;;;;5055810;28;20166;-66
2022/04/29 08:36:18;;;;;;;10.33;7.83;;;;;;;;;;5055764;28;20181;-66
2022/04/29 08:38:44;;;;;;;10.97;7.47;;;;;;;;;;5037486;28;20305;-65
2022/04/29 08:41:10;;;;;;;11.60;7.67;;;;;;;;;;5055253;28;20685;-66
2022/04/29 08:43:37;;;;;;;13.80;8.03;;;;;;;;;;5055082;28;20262;-66
2022/04/29 08:46:03;;;;;;;11.27;6.93;;;;;;;;;;5055115;28;20678;-66
2022/04/29 08:48:29;;;;;;;10.67;7.27;;;;;;;;;;5055709;28;20178;-66
2022/04/29 08:50:57;;;;;;;15.37;8.43;;;;;;;;;;5036517;28;20226;-66
2022/04/29 08:53:23;;;;;;;17.47;8.30;;;;;;;;;;5054906;28;20178;-66
2022/04/29 08:58:38;;;;;;;11.80;8.53;;;;;;;;;;5055060;28;20645;-68
2022/04/29 09:01:05;;;;;;;17.43;8.13;;;;;;;;;;5037053;28;20630;-66
2022/04/29 09:03:32;;;;;;;12.50;8.00;;;;;;;;;;5054822;28;20217;-66
2022/04/29 09:05:57;;;;;;;11.53;7.10;;;;;;;;;;5054834;28;20202;-66
2022/04/29 09:08:24;;;;;;;14.70;8.63;;;;;;;;;;5036811;28;20315;-67
2022/04/29 09:10:57;;;;;;;15.20;8.70;;;;;;;;;;5036758;28;20574;-66
2022/04/29 09:13:24;;;;;;;16.80;9.87;;;;;;;;;;5055195;28;20159;-66
2022/04/29 09:15:51;;;;;;;14.67;9.20;;;;;;;;;;5054701;28;20205;-66
2022/04/29 09:18:37;;;;;;;11.97;8.00;;;;;;;;;;5054559;28;20236;-66
2022/04/29 09:21:04;;;;;;;14.07;8.23;;;;;;;;;;5054724;28;20197;-66
2022/04/29 09:23:31;;;;;;;15.37;8.70;;;;;;;;;;5055238;28;20182;-66
2022/04/29 09:26:05;;;;;;;13.23;8.00;;;;;;;;;;5054270;28;20238;-66
2022/04/29 09:28:31;;;;;;;16.70;8.67;;;;;;;;;;5036684;28;20174;-66
2022/04/29 09:30:57;;;;;;;14.33;8.37;;;;;;;;;;5054154;28;20713;-67
2022/04/29 09:33:24;;;;;;;17.93;9.63;;;;;;;;;;5054257;28;20174;-66
2022/04/29 09:35:51;;;;;;;16.10;8.47;;;;;;;;;;5054512;28;20178;-67
2022/04/29 09:41:02;;;;;;;12.37;7.93;;;;;;;;;;5054479;28;20320;-66
2022/04/29 09:43:32;;;;;;;13.20;7.80;;;;;;;;;;5053936;28;20179;-66
2022/04/29 09:46:17;;;;;;;17.43;7.93;;;;;;;;;;5054175;28;20212;-67
2022/04/29 09:49:03;;;;;;;8.50;6.63;;;;;;;;;;5036054;28;20183;-65
2022/04/29 09:51:43;;;;;;;11.47;7.13;;;;;;;;;;5053768;28;20190;-66
2022/04/29 09:54:15;;;;;;;14.63;6.83;;;;;;;;;;5053845;28;20178;-66
2022/04/29 09:56:41;;;;;;;11.60;7.97;;;;;;;;;;5036076;28;20562;-66
2022/04/29 09:59:08;;;;;;;12.93;7.97;;;;;;;;;;5054024;28;20190;-66
2022/04/29 10:01:34;;;;;;;11.87;6.80;;;;;;;;;;5036073;28;20206;-66
2022/04/29 10:04:00;;;;;;;16.43;7.07;;;;;;;;;;5053844;28;20187;-66
2022/04/29 10:06:27;;;;;;;12.10;7.57;;;;;;;;;;5035917;28;20248;-66
2022/04/29 10:08:54;;;;;;;9.33;6.43;;;;;;;;;;5053808;28;20701;-66
2022/04/29 10:11:24;;;;;;;12.23;6.43;;;;;;;;;;5035527;28;20261;-66
2022/04/29 10:13:50;;;;;;;10.77;6.03;;;;;;;;;;5053895;28;20174;-66
2022/04/29 10:16:18;;;;;;;10.63;6.87;;;;;;;;;;5053803;28;20535;-66
2022/04/29 10:21:54;;;;;;;9.37;6.03;;;;;;;;;;4992101;28;20270;-66
2022/04/29 10:24:24;;;;;;;9.03;5.67;;;;;;;;;;4975941;28;20184;-65
2022/04/29 10:26:52;;;;;;;8.00;5.53;;;;;;;;;;5022698;28;20231;-65
2022/04/29 10:29:18;;;;;;;9.67;5.73;;;;;;;;;;5053418;28;20698;-65
2022/04/29 10:32:04;;;;;;;8.20;6.13;;;;;;;;;;5053316;28;20255;-65
2022/04/29 10:34:31;;;;;;;11.37;6.40;;;;;;;;;;5035774;28;20174;-65
2022/04/29 10:36:59;;;;;;;10.20;5.93;;;;;;;;;;5053780;28;20289;-65
2022/04/29 10:39:25;;;;;;;8.13;6.00;;;;;;;;;;5053326;28;20174;-65
2022/04/29 10:41:58;;;;;;;8.57;6.00;;;;;;;;;;5053242;28;20229;-63
2022/04/29 10:44:24;;;;;;;10.93;6.00;;;;;;;;;;5054265;28;20257;-65
2022/04/29 10:46:50;;;;;;;7.33;6.10;;;;;;;;;;5053978;28;20288;-65
2022/04/29 10:49:21;;;;;;;7.87;5.57;;;;;;;;;;5035203;28;20205;-65
2022/04/29 10:51:56;;;;;;;8.00;5.67;;;;;;;;;;5053058;28;20704;-65
2022/04/29 10:54:43;;;;;;;10.63;5.77;;;;;;;;;;5035588;28;20244;-66
2022/04/29 10:57:12;;;;;;;9.53;5.53;;;;;;;;;;5053572;28;20301;-65
2022/04/29 10:59:49;;;;;;;7.23;5.00;;;;;;;;;;5053210;28;20201;-65
2022/04/29 11:02:23;;;;;;;8.87;5.50;;;;;;;;;;5052810;28;20198;-65
2022/04/29 11:04:49;;;;;;;13.17;5.20;;;;;;;;;;5053197;28;20154;-65
2022/04/29 11:07:33;;;;;;;11.57;6.03;;;;;;;;;;5035111;28;20179;-67
2022/04/29 11:09:59;;;;;;;8.67;5.33;;;;;;;;;;5053231;28;20213;-65
2022/04/29 11:12:31;;;;;;;7.47;5.00;;;;;;;;;;5053202;28;20258;-65
2022/04/29 11:15:14;;;;;;;10.10;5.57;;;;;;;;;;5054584;28;20549;-65
2022/04/29 11:17:40;;;;;;;8.87;5.77;;;;;;;;;;5056751;28;20166;-65
2022/04/29 11:20:14;;;;;;;6.63;5.13;;;;;;;;;;5039142;28;20324;-65
2022/04/29 11:25:25;;;;;;;7.70;5.40;;;;;;;;;;5056773;28;20213;-65
2022/04/29 11:27:51;;;;;;;11.00;6.20;;;;;;;;;;5038693;28;20189;-65
2022/04/29 11:30:19;;;;;;;9.37;5.70;;;;;;;;;;5056437;28;20214;-66
2022/04/29 11:32:45;;;;;;;11.23;6.30;;;;;;;;;;5056642;28;20170;-65
2022/04/29 11:35:11;;;;;;;8.30;5.40;;;;;;;;;;5038515;28;20182;-65
2022/04/29 11:37:37;;;;;;;9.73;5.47;;;;;;;;;;5056520;28;20188;-65
2022/04/29 11:40:04;;;;;;;8.00;4.80;;;;;;;;;;5038373;28;20265;-65
2022/04/29 11:42:30;;;;;;;6.90;4.70;;;;;;;;;;5057028;28;20201;-65
2022/04/29 11:45:03;;;;;;;7.67;4.83;;;;;;;;;;5056361;28;20662;-65
2022/04/29 11:47:31;;;;;;;8.83;5.67;;;;;;;;;;5038426;28;20163;-65
2022/04/29 11:49:57;;;;;;;7.40;5.47;;;;;;;;;;5056291;28;20189;-64
2022/04/29 11:52:29;;;;;;;7.10;4.83;;;;;;;;;;5038378;28;20178;-65
2022/04/29 11:54:56;;;;;;;6.83;4.70;;;;;;;;;;5056154;28;20166;-65
2022/04/29 11:57:23;;;;;;;8.10;5.00;;;;;;;;;;5038120;28;20236;-65
2022/04/29 11:59:49;;;;;;;6.73;5.10;;;;;;;;;;5056517;28;20570;-65
2022/04/29 12:02:19;;;;;;;8.57;5.03;;;;;;;;;;5038371;28;20736;-65
2022/04/29 12:04:54;;;;;;;5.70;4.23;;;;;;;;;;5055971;28;20254;-65
2022/04/29 12:07:21;;;;;;;8.33;4.87;;;;;;;;;;5038057;28;20190;-66
2022/04/29 12:09:47;;;;;;;6.83;4.73;;;;;;;;;;5055831;28;20272;-65
2022/04/29 12:12:26;;;;;;;10.23;5.13;;;;;;;;;;5056117;28;20205;-65
2022/04/29 12:14:52;;;;;;;6.43;4.80;;;;;;;;;;5055971;28;20171;-65
2022/04/29 12:17:19;;;;;;;8.77;5.50;;;;;;;;;;5037849;28;20202;-65
2022/04/29 12:19:48;;;;;;;6.40;5.17;;;;;;;;;;5037825;28;20178;-67
2022/04/29 12:22:26;;;;;;;8.30;5.00;;;;;;;;;;5055631;28;20596;-66
2022/04/29 12:24:52;;;;;;;6.33;4.83;;;;;;;;;;5055735;28;20182;-67
2022/04/29 12:27:27;;;;;;;8.73;5.37;;;;;;;;;;5055933;28;20208;-64
2022/04/29 12:35:30;;;;;;;8.07;5.17;;;;;;;;;;5055741;28;20217;-65
2022/04/29 12:37:56;;;;;;;6.33;4.83;;;;;;;;;;5055721;28;20646;-65
2022/04/29 12:40:29;;;;;;;7.63;5.47;;;;;;;;;;5055329;28;20210;-65
2022/04/29 12:43:08;;;;;;;6.73;5.43;;;;;;;;;;5055517;28;20162;-65
2022/04/29 12:45:34;;;;;;;10.27;6.07;;;;;;;;;;5055126;28;20230;-65
2022/04/29 12:48:02;;;;;;;11.37;6.37;;;;;;;;;;5037426;28;20178;-65
2022/04/29 12:50:41;;;;;;;11.43;6.20;;;;;;;;;;5042470;22;20592;-66
2022/04/29 12:53:17;;;;;;;11.67;6.37;;;;;;;;;;5035333;28;20531;-66
2022/04/29 12:55:44;;;;;;;9.63;6.50;;;;;;;;;;5035343;28;20205;-66
2022/04/29 12:58:14;;;;;;;9.07;6.13;;;;;;;;;;5017654;28;20609;-65
2022/04/29 13:00:40;;;;;;;9.80;6.27;;;;;;;;;;5035577;28;20203;-66
2022/04/29 13:03:11;;;;;;;7.97;5.30;;;;;;;;;;5035530;28;20175;-66
2022/04/29 13:05:38;;;;;;;9.90;6.67;;;;;;;;;;5034911;28;20610;-66
2022/04/29 13:08:07;;;;;;;8.77;6.03;;;;;;;;;;5034968;28;20179;-66
2022/04/29 13:10:41;;;;;;;10.20;5.87;;;;;;;;;;5034916;28;20191;-66
2022/04/29 13:13:07;;;;;;;9.27;6.07;;;;;;;;;;5017027;28;20167;-66
2022/04/29 13:15:33;;;;;;;11.23;6.30;;;;;;;;;;5017034;28;20278;-66
2022/04/29 13:17:59;;;;;;;10.57;6.77;;;;;;;;;;5034956;28;20182;-65
2022/04/29 13:20:26;;;;;;;8.23;5.93;;;;;;;;;;5034469;28;20660;-66
2022/04/29 13:22:53;;;;;;;8.80;6.43;;;;;;;;;;5016801;28;20179;-66
2022/04/29 13:25:19;;;;;;;11.13;6.20;;;;;;;;;;5034698;28;20203;-65
2022/04/29 13:27:45;;;;;;;9.03;6.63;;;;;;;;;;5035070;28;20618;-65
2022/04/29 13:30:11;;;;;;;8.27;5.77;;;;;;;;;;5034505;28;20253;-66
2022/04/29 13:32:38;;;;;;;9.63;6.53;;;;;;;;;;5034453;28;20206;-66
2022/04/29 13:35:04;;;;;;;12.20;7.00;;;;;;;;;;5034500;28;20171;-66
2022/04/29 13:37:35;;;;;;;10.10;6.73;;;;;;;;;;5033761;28;20184;-66
2022/04/29 13:40:01;;;;;;;11.07;6.70;;;;;;;;;;5016544;28;20697;-66
2022/04/29 13:42:29;;;;;;;8.30;6.27;;;;;;;;;;5034138;28;20179;-66
2022/04/29 13:44:56;;;;;;;8.43;5.80;;;;;;;;;;5016276;28;20195;-65
2022/04/29 13:47:21;;;;;;;8.97;6.13;;;;;;;;;;5034131;28;20258;-66
2022/04/29 13:49:47;;;;;;;7.43;5.77;;;;;;;;;;5034063;28;20693;-66
2022/04/29 13:54:58;;;;;;;8.60;4.93;;;;;;;;;;5034386;28;20166;-66
2022/04/29 13:57:24;;;;;;;7.13;5.27;;;;;;;;;;5016202;28;20179;-66
2022/04/29 13:59:50;;;;;;;5.80;4.63;;;;;;;;;;5034036;28;20203;-67
2022/04/29 14:02:17;;;;;;;10.17;5.40;;;;;;;;;;5016204;28;20183;-66
2022/04/29 14:04:42;;;;;;;9.57;5.40;;;;;;;;;;5034437;28;20175;-66
2022/04/29 14:07:09;;;;;;;13.00;6.20;;;;;;;;;;5034210;28;20703;-66
2022/04/29 14:09:35;;;;;;;9.80;6.13;;;;;;;;;;5033627;28;20191;-66
2022/04/29 14:12:01;;;;;;;10.73;5.87;;;;;;;;;;5016158;28;20694;-66
2022/04/29 14:14:27;;;;;;;9.87;5.90;;;;;;;;;;5034012;28;20178;-66
2022/04/29 14:16:53;;;;;;;9.20;5.97;;;;;;;;;;5033682;28;20179;-66
2022/04/29 14:19:19;;;;;;;7.30;5.30;;;;;;;;;;5033679;28;20192;-66
2022/04/29 14:21:46;;;;;;;10.67;6.30;;;;;;;;;;5033731;28;20220;-66
2022/04/29 14:24:12;;;;;;;6.67;5.87;;;;;;;;;;5033636;28;20203;-66
2022/04/29 14:26:38;;;;;;;7.80;5.87;;;;;;;;;;5033709;28;20296;-66
2022/04/29 14:29:04;;;;;;;7.43;5.47;;;;;;;;;;5015911;28;20559;-66
2022/04/29 14:31:30;;;;;;;7.83;5.77;;;;;;;;;;5033960;28;20186;-66
2022/04/29 14:34:00;;;;;;;10.40;5.87;;;;;;;;;;5033674;28;20543;-67
2022/04/29 14:36:32;;;;;;;7.43;5.50;;;;;;;;;;5015621;28;20191;-66
2022/04/29 14:38:58;;;;;;;7.63;5.20;;;;;;;;;;5033580;28;20526;-67
2022/04/29 14:41:24;;;;;;;7.27;6.07;;;;;;;;;;5015553;28;20207;-69
2022/04/29 14:43:50;;;;;;;6.87;5.33;;;;;;;;;;5033706;28;20179;-66
2022/04/29 14:46:17;;;;;;;6.93;5.53;;;;;;;;;;5033438;28;20249;-66
2022/04/29 14:48:43;;;;;;;7.10;5.40;;;;;;;;;;5015854;28;20634;-66
2022/04/29 14:51:10;;;;;;;8.70;5.87;;;;;;;;;;5018993;28;20218;-66
2022/04/29 14:53:37;;;;;;;7.67;5.30;;;;;;;;;;5019575;28;20193;-66
2022/04/29 14:56:04;;;;;;;7.80;6.10;;;;;;;;;;5037656;28;20171;-66
2022/04/29 14:58:30;;;;;;;6.10;5.20;;;;;;;;;;5037242;28;20190;-66
2022/04/29 15:00:56;;;;;;;6.40;5.70;;;;;;;;;;5019506;28;20199;-66
2022/04/29 15:03:22;;;;;;;6.57;5.47;;;;;;;;;;5037206;28;20182;-66
2022/04/29 15:05:48;;;;;;;7.40;5.47;;;;;;;;;;5019435;28;20203;-66
2022/04/29 15:08:14;;;;;;;7.77;6.53;;;;;;;;;;5037041;28;20606;-66
2022/04/29 15:16:09;;;;;;;10.57;6.30;;;;;;;;;;5038466;28;20689;-66